Time;durP1;ratioP1;P1;durP2;ratioP2;P2;SDS_P1;SDS_P2;PMS_P1;PMS_P2;Temp;Humidity;BMP_temperature;BMP_pressure;BME280_temperature;BME280_humidity;BME280_pressure;Samples;Min_cycle;Max_cycle;Signal;HPM_P1;HPM_P2
2021/10/02 00:37:19;;;;;;;0.30;0.30;;;;;;;;;;5010183;28;20406;-67
2021/10/02 00:44:59;;;;;;;0.30;0.30;;;;;;;;;;5011225;28;20417;-66
2021/10/02 00:47:28;;;;;;;0.30;0.30;;;;;;;;;;5011377;28;20491;-66
2021/10/02 00:49:55;;;;;;;0.30;0.30;;;;;;;;;;5011364;28;20198;-66
2021/10/02 00:52:22;;;;;;;0.30;0.30;;;;;;;;;;5011498;28;20435;-67
2021/10/02 00:54:48;;;;;;;0.30;0.30;;;;;;;;;;5011779;28;20184;-66
2021/10/02 00:57:15;;;;;;;0.30;0.30;;;;;;;;;;5011094;28;20203;-66
2021/10/02 00:59:41;;;;;;;0.30;0.30;;;;;;;;;;5011076;28;20424;-66
2021/10/02 01:02:14;;;;;;;0.30;0.30;;;;;;;;;;5010104;28;20434;-67
2021/10/02 01:04:58;;;;;;;0.30;0.30;;;;;;;;;;5009148;28;20171;-67
2021/10/02 01:07:24;;;;;;;0.30;0.30;;;;;;;;;;5009938;28;20419;-67
2021/10/02 01:09:57;;;;;;;0.30;0.30;;;;;;;;;;5010788;28;20206;-66
2021/10/02 01:12:55;;;;;;;0.30;0.30;;;;;;;;;;5007680;28;20573;-67
2021/10/02 01:15:26;;;;;;;0.30;0.30;;;;;;;;;;4978333;28;20400;-66
2021/10/02 01:17:53;;;;;;;0.30;0.30;;;;;;;;;;5011505;28;20422;-66
2021/10/02 01:20:39;;;;;;;0.30;0.30;;;;;;;;;;5007870;28;20185;-66
2021/10/02 01:23:18;;;;;;;0.30;0.30;;;;;;;;;;5009404;28;20475;-67
2021/10/02 01:26:02;;;;;;;0.30;0.30;;;;;;;;;;5009361;28;21194;-67
2021/10/02 01:28:30;;;;;;;0.30;0.30;;;;;;;;;;5009915;28;20743;-67
2021/10/02 01:33:42;;;;;;;0.30;0.30;;;;;;;;;;5010635;28;20202;-67
2021/10/02 01:36:23;;;;;;;0.30;0.30;;;;;;;;;;5013975;28;20495;-67
2021/10/02 01:47:12;;;;;;;0.40;0.40;;;;;;;;;;5013494;28;20553;-67
2021/10/02 01:49:39;;;;;;;0.30;0.30;;;;;;;;;;5015124;28;20567;-66
2021/10/02 01:52:06;;;;;;;0.37;0.37;;;;;;;;;;5014779;28;20916;-66
2021/10/02 01:54:33;;;;;;;0.30;0.30;;;;;;;;;;5014452;28;20773;-67
2021/10/02 01:57:00;;;;;;;0.30;0.30;;;;;;;;;;5014508;28;20410;-67
2021/10/02 01:59:27;;;;;;;0.30;0.30;;;;;;;;;;5014759;28;20431;-66
2021/10/02 02:01:53;;;;;;;0.30;0.30;;;;;;;;;;5013173;28;20441;-67
2021/10/02 02:04:21;;;;;;;0.30;0.30;;;;;;;;;;5014389;28;20736;-66
2021/10/02 02:06:47;;;;;;;0.30;0.30;;;;;;;;;;5014469;28;20412;-66
2021/10/02 02:09:15;;;;;;;0.30;0.30;;;;;;;;;;5014161;28;20453;-66
2021/10/02 02:11:42;;;;;;;0.30;0.30;;;;;;;;;;5014255;28;20401;-67
2021/10/02 02:14:10;;;;;;;0.30;0.30;;;;;;;;;;5013234;28;20469;-66
2021/10/02 02:16:41;;;;;;;0.40;0.40;;;;;;;;;;5011447;28;20413;-67
2021/10/02 02:19:09;;;;;;;0.30;0.30;;;;;;;;;;5014435;28;20508;-66
2021/10/02 02:21:35;;;;;;;0.40;0.40;;;;;;;;;;5011021;28;20183;-67
2021/10/02 02:24:01;;;;;;;0.40;0.40;;;;;;;;;;5014340;28;20598;-67
2021/10/02 02:26:28;;;;;;;0.30;0.30;;;;;;;;;;5014248;28;20408;-67
2021/10/02 02:28:54;;;;;;;0.30;0.30;;;;;;;;;;5013935;28;20463;-66
2021/10/02 02:31:20;;;;;;;0.30;0.30;;;;;;;;;;5013832;28;20174;-66
2021/10/02 02:33:47;;;;;;;0.30;0.30;;;;;;;;;;5013930;28;20194;-67
2021/10/02 02:36:13;;;;;;;0.30;0.30;;;;;;;;;;5012674;28;20935;-67
2021/10/02 02:38:38;;;;;;;0.30;0.30;;;;;;;;;;5013868;28;20412;-66
2021/10/02 02:41:05;;;;;;;0.30;0.30;;;;;;;;;;5013981;28;20440;-67
2021/10/02 02:43:34;;;;;;;0.30;0.30;;;;;;;;;;5013888;28;20436;-66
2021/10/02 02:46:17;;;;;;;0.30;0.30;;;;;;;;;;5013796;28;20607;-67
2021/10/02 02:48:51;;;;;;;0.40;0.40;;;;;;;;;;5013715;28;21099;-67
2021/10/02 02:51:21;;;;;;;0.30;0.30;;;;;;;;;;5009778;28;20424;-66
2021/10/02 02:53:48;;;;;;;0.30;0.30;;;;;;;;;;5013958;28;20425;-67
2021/10/02 02:56:23;;;;;;;0.30;0.30;;;;;;;;;;5013774;28;20413;-67
2021/10/02 02:58:55;;;;;;;0.40;0.40;;;;;;;;;;5012243;28;20471;-66
2021/10/02 03:01:22;;;;;;;0.30;0.30;;;;;;;;;;5011001;28;20413;-67
2021/10/02 03:03:50;;;;;;;0.30;0.30;;;;;;;;;;5013836;28;21114;-66
2021/10/02 03:06:18;;;;;;;0.30;0.30;;;;;;;;;;5013824;28;20210;-67
2021/10/02 03:08:46;;;;;;;0.30;0.30;;;;;;;;;;5013589;28;20182;-66
2021/10/02 03:11:13;;;;;;;0.30;0.30;;;;;;;;;;5012863;28;20176;-66
2021/10/02 03:13:39;;;;;;;0.40;0.40;;;;;;;;;;5009580;28;20199;-66
2021/10/02 03:16:09;;;;;;;0.30;0.30;;;;;;;;;;5012043;28;20796;-66
2021/10/02 03:18:36;;;;;;;0.30;0.30;;;;;;;;;;5011844;28;20555;-67
2021/10/02 03:21:02;;;;;;;0.30;0.30;;;;;;;;;;5013212;28;20385;-66
2021/10/02 03:23:29;;;;;;;0.30;0.30;;;;;;;;;;5011422;28;20597;-66
2021/10/02 03:25:55;;;;;;;0.40;0.40;;;;;;;;;;5012151;28;20178;-66
2021/10/02 03:28:21;;;;;;;0.40;0.40;;;;;;;;;;5012149;28;20487;-66
2021/10/02 03:30:47;;;;;;;0.30;0.30;;;;;;;;;;5011855;28;20204;-66
2021/10/02 03:33:14;;;;;;;0.30;0.30;;;;;;;;;;5010726;28;20428;-66
2021/10/02 03:35:40;;;;;;;0.40;0.40;;;;;;;;;;5011638;28;20951;-66
2021/10/02 03:38:06;;;;;;;0.30;0.30;;;;;;;;;;5012183;28;20683;-67
2021/10/02 03:40:33;;;;;;;0.40;0.40;;;;;;;;;;5011888;28;20473;-67
2021/10/02 03:42:59;;;;;;;0.30;0.30;;;;;;;;;;5011872;28;20808;-66
2021/10/02 03:45:27;;;;;;;0.40;0.40;;;;;;;;;;5011445;28;20181;-67
2021/10/02 03:47:53;;;;;;;0.30;0.30;;;;;;;;;;5011593;28;20230;-66
2021/10/02 03:50:19;;;;;;;0.30;0.30;;;;;;;;;;5010503;28;20487;-67
2021/10/02 03:52:45;;;;;;;0.30;0.30;;;;;;;;;;5011799;28;20201;-67
2021/10/02 03:55:16;;;;;;;0.30;0.30;;;;;;;;;;5011784;28;20416;-67
2021/10/02 03:57:42;;;;;;;0.30;0.30;;;;;;;;;;5010802;28;20824;-67
2021/10/02 04:00:10;;;;;;;0.30;0.30;;;;;;;;;;5011316;28;20281;-67
2021/10/02 04:02:37;;;;;;;0.30;0.30;;;;;;;;;;5011761;28;20635;-67
2021/10/02 04:05:06;;;;;;;0.30;0.30;;;;;;;;;;5011707;28;20940;-67
2021/10/02 04:07:32;;;;;;;0.38;0.38;;;;;;;;;;5011353;28;20183;-68
2021/10/02 04:09:58;;;;;;;0.30;0.30;;;;;;;;;;5011429;28;20199;-68
2021/10/02 04:12:24;;;;;;;0.30;0.30;;;;;;;;;;5010964;28;20443;-67
2021/10/02 04:14:50;;;;;;;0.30;0.30;;;;;;;;;;5011483;28;20405;-68
2021/10/02 04:17:17;;;;;;;0.30;0.30;;;;;;;;;;5011261;28;20405;-67
2021/10/02 04:19:43;;;;;;;0.30;0.30;;;;;;;;;;5009627;28;20417;-66
2021/10/02 04:22:10;;;;;;;0.30;0.30;;;;;;;;;;4975502;28;1033446;-67
2021/10/02 04:24:38;;;;;;;0.30;0.30;;;;;;;;;;5011711;28;20182;-67
2021/10/02 04:27:04;;;;;;;0.40;0.40;;;;;;;;;;5012249;28;20185;-67
2021/10/02 04:29:30;;;;;;;0.40;0.40;;;;;;;;;;5011713;28;20202;-68
2021/10/02 04:31:56;;;;;;;0.30;0.30;;;;;;;;;;5008929;28;20688;-68
2021/10/02 04:34:22;;;;;;;0.30;0.30;;;;;;;;;;5010724;28;20428;-67
2021/10/02 04:36:48;;;;;;;0.40;0.40;;;;;;;;;;5011561;28;20418;-67
2021/10/02 04:39:14;;;;;;;0.40;0.40;;;;;;;;;;5010390;28;20416;-67
2021/10/02 04:41:40;;;;;;;0.30;0.30;;;;;;;;;;5011028;28;20443;-67
2021/10/02 04:44:06;;;;;;;0.40;0.40;;;;;;;;;;5011790;28;20170;-67
2021/10/02 04:46:32;;;;;;;0.30;0.30;;;;;;;;;;5010602;28;20437;-67
2021/10/02 04:48:58;;;;;;;0.40;0.40;;;;;;;;;;5011516;28;20193;-68
2021/10/02 04:51:24;;;;;;;0.30;0.30;;;;;;;;;;5011437;28;20228;-67
2021/10/02 04:53:51;;;;;;;0.30;0.30;;;;;;;;;;5011456;28;20405;-67
2021/10/02 04:56:19;;;;;;;0.30;0.30;;;;;;;;;;5007669;28;20424;-67
2021/10/02 04:58:45;;;;;;;0.40;0.40;;;;;;;;;;5011687;28;20544;-67
2021/10/02 05:01:14;;;;;;;0.40;0.40;;;;;;;;;;5009963;28;20179;-66
2021/10/02 05:03:44;;;;;;;0.30;0.30;;;;;;;;;;5009031;28;20454;-67
2021/10/02 05:06:13;;;;;;;0.40;0.40;;;;;;;;;;5010487;28;20179;-68
2021/10/02 05:08:39;;;;;;;0.40;0.40;;;;;;;;;;5008793;28;20669;-66
2021/10/02 05:11:05;;;;;;;0.30;0.30;;;;;;;;;;5011534;28;20174;-67
2021/10/02 05:13:34;;;;;;;0.30;0.30;;;;;;;;;;5011126;28;20417;-67
2021/10/02 05:16:01;;;;;;;0.40;0.40;;;;;;;;;;5008999;28;20215;-67
2021/10/02 05:18:27;;;;;;;0.30;0.30;;;;;;;;;;5011354;28;21124;-67
2021/10/02 05:20:53;;;;;;;0.40;0.40;;;;;;;;;;5011179;28;20182;-67
2021/10/02 05:23:19;;;;;;;0.30;0.30;;;;;;;;;;5011261;28;20547;-67
2021/10/02 05:25:45;;;;;;;0.40;0.40;;;;;;;;;;5078292;22;20586;-65
2021/10/02 05:28:11;;;;;;;0.40;0.40;;;;;;;;;;5031031;28;20815;-65
2021/10/02 05:30:37;;;;;;;0.40;0.40;;;;;;;;;;5030634;28;20300;-66
2021/10/02 05:33:03;;;;;;;0.40;0.40;;;;;;;;;;5031466;28;20414;-66
2021/10/02 05:35:30;;;;;;;0.40;0.40;;;;;;;;;;5013649;28;20548;-65
2021/10/02 05:37:55;;;;;;;0.40;0.40;;;;;;;;;;5030497;28;20549;-65
2021/10/02 05:40:21;;;;;;;0.40;0.40;;;;;;;;;;5030782;28;20255;-65
2021/10/02 05:42:47;;;;;;;0.40;0.40;;;;;;;;;;5030850;28;20926;-64
2021/10/02 05:45:13;;;;;;;0.40;0.40;;;;;;;;;;5030945;28;20930;-65
2021/10/02 05:47:39;;;;;;;0.30;0.30;;;;;;;;;;5030620;28;20411;-65
2021/10/02 05:50:06;;;;;;;0.30;0.30;;;;;;;;;;5030139;28;20459;-64
2021/10/02 05:52:32;;;;;;;0.30;0.30;;;;;;;;;;5030957;28;20419;-65
2021/10/02 05:54:58;;;;;;;0.30;0.30;;;;;;;;;;5030717;28;20185;-65
2021/10/02 05:57:24;;;;;;;0.30;0.30;;;;;;;;;;5030816;28;20165;-65
2021/10/02 05:59:50;;;;;;;0.30;0.30;;;;;;;;;;5030528;28;20421;-65
2021/10/02 06:02:16;;;;;;;0.30;0.30;;;;;;;;;;5030182;28;20522;-65
2021/10/02 06:04:42;;;;;;;0.30;0.30;;;;;;;;;;5030882;28;20197;-67
2021/10/02 06:07:08;;;;;;;0.30;0.30;;;;;;;;;;5030709;28;20173;-65
2021/10/02 06:09:34;;;;;;;0.30;0.30;;;;;;;;;;5030568;28;20455;-66
2021/10/02 06:12:00;;;;;;;0.40;0.40;;;;;;;;;;5030026;28;20169;-65
2021/10/02 06:14:26;;;;;;;0.30;0.30;;;;;;;;;;5030420;28;20471;-66
2021/10/02 06:16:52;;;;;;;0.30;0.30;;;;;;;;;;5030773;28;20179;-64
2021/10/02 06:19:18;;;;;;;0.30;0.30;;;;;;;;;;5030410;28;20498;-66
2021/10/02 06:21:45;;;;;;;0.30;0.30;;;;;;;;;;5033395;28;20454;-67
2021/10/02 06:24:11;;;;;;;0.30;0.30;;;;;;;;;;5034026;28;20437;-67
2021/10/02 06:26:40;;;;;;;0.30;0.30;;;;;;;;;;5015978;28;20399;-67
2021/10/02 06:29:07;;;;;;;0.30;0.30;;;;;;;;;;5034086;28;20478;-66
2021/10/02 06:31:33;;;;;;;0.30;0.30;;;;;;;;;;5033895;28;20257;-66
2021/10/02 06:33:59;;;;;;;0.30;0.30;;;;;;;;;;5033343;28;20168;-66
2021/10/02 06:36:27;;;;;;;0.37;0.37;;;;;;;;;;5034062;28;20442;-67
2021/10/02 06:38:54;;;;;;;0.30;0.30;;;;;;;;;;5033660;28;20423;-66
2021/10/02 06:41:20;;;;;;;0.40;0.40;;;;;;;;;;5015816;28;20386;-66
2021/10/02 06:43:46;;;;;;;0.37;0.37;;;;;;;;;;5033434;28;20446;-66
2021/10/02 06:46:12;;;;;;;0.40;0.40;;;;;;;;;;5033713;28;20432;-66
2021/10/02 06:48:38;;;;;;;0.30;0.30;;;;;;;;;;5033560;28;20407;-66
2021/10/02 06:51:04;;;;;;;0.40;0.40;;;;;;;;;;5033223;28;20610;-67
2021/10/02 06:53:30;;;;;;;0.40;0.40;;;;;;;;;;5032378;28;20530;-66
2021/10/02 06:55:56;;;;;;;0.40;0.40;;;;;;;;;;5032895;28;20522;-66
2021/10/02 06:58:22;;;;;;;0.30;0.30;;;;;;;;;;5033628;28;20481;-66
2021/10/02 07:00:48;;;;;;;0.30;0.30;;;;;;;;;;5015622;28;20432;-66
2021/10/02 07:03:14;;;;;;;0.30;0.30;;;;;;;;;;5033164;28;20447;-66
2021/10/02 07:05:40;;;;;;;0.40;0.40;;;;;;;;;;5015109;28;20526;-66
2021/10/02 07:08:06;;;;;;;0.30;0.30;;;;;;;;;;5033141;28;20169;-66
2021/10/02 07:10:32;;;;;;;0.40;0.40;;;;;;;;;;5033121;28;20467;-66
2021/10/02 07:12:59;;;;;;;0.30;0.30;;;;;;;;;;5033404;28;20416;-66
2021/10/02 07:15:25;;;;;;;0.30;0.30;;;;;;;;;;5015285;28;20194;-67
2021/10/02 07:17:51;;;;;;;0.30;0.30;;;;;;;;;;5032839;28;20211;-66
2021/10/02 07:20:17;;;;;;;0.30;0.30;;;;;;;;;;5015327;28;20421;-66
2021/10/02 07:22:44;;;;;;;0.30;0.30;;;;;;;;;;5033363;28;20169;-67
2021/10/02 07:25:11;;;;;;;0.40;0.40;;;;;;;;;;5032884;28;20440;-67
2021/10/02 07:27:37;;;;;;;0.32;0.32;;;;;;;;;;5014702;28;20431;-67
2021/10/02 07:30:04;;;;;;;0.40;0.40;;;;;;;;;;5014715;28;20194;-66
2021/10/02 07:32:30;;;;;;;0.30;0.30;;;;;;;;;;5031987;28;20418;-66
2021/10/02 07:34:57;;;;;;;0.30;0.30;;;;;;;;;;5033140;28;20433;-67
2021/10/02 07:37:23;;;;;;;0.30;0.30;;;;;;;;;;5033072;28;20420;-66
2021/10/02 07:39:49;;;;;;;0.30;0.30;;;;;;;;;;4998165;28;20457;-67
2021/10/02 07:42:16;;;;;;;0.30;0.30;;;;;;;;;;5031841;28;20822;-67
2021/10/02 07:44:43;;;;;;;0.30;0.30;;;;;;;;;;5031915;28;20454;-66
2021/10/02 07:47:09;;;;;;;0.40;0.40;;;;;;;;;;5032756;28;20458;-66
2021/10/02 07:49:36;;;;;;;0.30;0.30;;;;;;;;;;5032129;28;20954;-65
2021/10/02 07:52:03;;;;;;;0.30;0.30;;;;;;;;;;5032320;28;20775;-67
2021/10/02 07:54:29;;;;;;;0.30;0.30;;;;;;;;;;5033178;28;20795;-66
2021/10/02 07:56:58;;;;;;;0.30;0.30;;;;;;;;;;5032482;28;20792;-67
2021/10/02 07:59:24;;;;;;;0.30;0.30;;;;;;;;;;5033119;28;20413;-66
2021/10/02 08:01:50;;;;;;;0.30;0.30;;;;;;;;;;5033950;28;20461;-66
2021/10/02 08:04:16;;;;;;;0.30;0.30;;;;;;;;;;5031477;28;20567;-66
2021/10/02 08:06:42;;;;;;;0.30;0.30;;;;;;;;;;5034102;28;20435;-67
2021/10/02 08:09:08;;;;;;;0.30;0.30;;;;;;;;;;5032694;28;20447;-67
2021/10/02 08:11:34;;;;;;;0.30;0.30;;;;;;;;;;5032492;28;20404;-67
2021/10/02 08:14:00;;;;;;;0.30;0.30;;;;;;;;;;5031005;28;20400;-67
2021/10/02 08:16:27;;;;;;;0.30;0.30;;;;;;;;;;5033293;28;20408;-66
2021/10/02 08:18:55;;;;;;;0.30;0.30;;;;;;;;;;5033153;28;20834;-67
2021/10/02 08:21:21;;;;;;;0.30;0.30;;;;;;;;;;5032663;28;20404;-67
2021/10/02 08:23:47;;;;;;;0.30;0.30;;;;;;;;;;5032567;28;20418;-67
2021/10/02 08:26:16;;;;;;;0.30;0.30;;;;;;;;;;5031323;28;20455;-66
2021/10/02 08:28:47;;;;;;;0.30;0.30;;;;;;;;;;5031429;28;20442;-67
2021/10/02 08:31:14;;;;;;;0.30;0.30;;;;;;;;;;5017872;28;20420;-66
2021/10/02 08:33:40;;;;;;;0.30;0.30;;;;;;;;;;5032148;28;20412;-67
2021/10/02 08:36:06;;;;;;;0.30;0.30;;;;;;;;;;5031889;28;20427;-67
2021/10/02 08:38:32;;;;;;;0.30;0.30;;;;;;;;;;5032194;28;20426;-67
2021/10/02 08:40:58;;;;;;;0.30;0.30;;;;;;;;;;5031192;28;20390;-66
2021/10/02 08:43:24;;;;;;;0.30;0.30;;;;;;;;;;5046700;28;21043;-66
2021/10/02 08:45:50;;;;;;;0.30;0.30;;;;;;;;;;5031943;28;20809;-66
2021/10/02 08:48:17;;;;;;;0.30;0.20;;;;;;;;;;5030931;28;20428;-66
2021/10/02 08:50:45;;;;;;;0.30;0.30;;;;;;;;;;5031678;28;20466;-66
2021/10/02 08:53:11;;;;;;;0.30;0.30;;;;;;;;;;5030905;28;20431;-67
2021/10/02 08:55:38;;;;;;;0.30;0.30;;;;;;;;;;5031317;28;20446;-66
2021/10/02 08:58:04;;;;;;;0.30;0.20;;;;;;;;;;5031413;28;20403;-66
2021/10/02 09:00:31;;;;;;;0.30;0.30;;;;;;;;;;5031586;28;20499;-66
2021/10/02 09:02:57;;;;;;;0.30;0.30;;;;;;;;;;5031714;28;20378;-67
2021/10/02 09:05:24;;;;;;;0.30;0.20;;;;;;;;;;5031501;28;20841;-67
2021/10/02 09:07:51;;;;;;;0.30;0.20;;;;;;;;;;5031629;28;20769;-67
2021/10/02 09:10:17;;;;;;;0.30;0.20;;;;;;;;;;5030961;28;20528;-67
2021/10/02 09:12:44;;;;;;;0.20;0.20;;;;;;;;;;5031643;28;20519;-67
2021/10/02 09:15:10;;;;;;;0.30;0.20;;;;;;;;;;5031529;28;20435;-67
2021/10/02 09:17:36;;;;;;;0.20;0.20;;;;;;;;;;5031323;28;20502;-67
2021/10/02 09:20:02;;;;;;;0.20;0.20;;;;;;;;;;5031129;28;20498;-67
2021/10/02 09:22:28;;;;;;;0.20;0.20;;;;;;;;;;5031355;28;20383;-67
2021/10/02 09:24:56;;;;;;;0.20;0.20;;;;;;;;;;5031342;28;21112;-66
2021/10/02 09:27:26;;;;;;;0.20;0.20;;;;;;;;;;5031472;28;20419;-66
2021/10/02 09:29:57;;;;;;;0.20;0.20;;;;;;;;;;5031064;28;20466;-65
2021/10/02 09:32:27;;;;;;;0.20;0.20;;;;;;;;;;5030944;28;20443;-65
2021/10/02 09:34:54;;;;;;;0.20;0.20;;;;;;;;;;5031365;28;20416;-64
2021/10/02 09:37:26;;;;;;;0.20;0.20;;;;;;;;;;5031280;28;20411;-67
2021/10/02 09:39:56;;;;;;;0.20;0.20;;;;;;;;;;5031386;28;20841;-67
2021/10/02 09:42:36;;;;;;;0.20;0.20;;;;;;;;;;5030487;28;20408;-67
2021/10/02 09:45:04;;;;;;;0.20;0.20;;;;;;;;;;5031281;28;20526;-66
2021/10/02 09:47:30;;;;;;;0.20;0.20;;;;;;;;;;5031329;28;20407;-67
2021/10/02 09:49:56;;;;;;;0.20;0.20;;;;;;;;;;5031152;28;20605;-67
2021/10/02 09:52:38;;;;;;;0.20;0.20;;;;;;;;;;5030957;28;20491;-67
2021/10/02 09:55:24;;;;;;;0.20;0.20;;;;;;;;;;5031785;28;20430;-65
2021/10/02 09:57:52;;;;;;;0.20;0.20;;;;;;;;;;5035117;28;20983;-65
2021/10/02 10:00:20;;;;;;;0.20;0.20;;;;;;;;;;5034692;28;20729;-66
2021/10/02 10:02:46;;;;;;;0.20;0.20;;;;;;;;;;5035077;28;20417;-67
2021/10/02 10:05:13;;;;;;;0.20;0.20;;;;;;;;;;5034199;28;20427;-67
2021/10/02 10:07:39;;;;;;;0.20;0.20;;;;;;;;;;5034930;28;20434;-67
2021/10/02 10:10:08;;;;;;;0.20;0.20;;;;;;;;;;5034760;28;20454;-66
2021/10/02 10:12:34;;;;;;;0.20;0.20;;;;;;;;;;5034912;28;20412;-66
2021/10/02 10:15:00;;;;;;;0.20;0.20;;;;;;;;;;5034550;28;20444;-67
2021/10/02 10:17:31;;;;;;;0.20;0.20;;;;;;;;;;5034221;28;20415;-67
2021/10/02 10:20:03;;;;;;;0.20;0.20;;;;;;;;;;5034967;28;20405;-66
2021/10/02 10:22:29;;;;;;;0.20;0.20;;;;;;;;;;5034623;28;20450;-67
2021/10/02 10:24:59;;;;;;;0.20;0.20;;;;;;;;;;5034831;28;20450;-65
2021/10/02 10:27:39;;;;;;;0.20;0.20;;;;;;;;;;5033882;28;20509;-65
2021/10/02 10:30:09;;;;;;;0.20;0.20;;;;;;;;;;5034065;28;20601;-66
2021/10/02 10:32:36;;;;;;;0.20;0.20;;;;;;;;;;5034151;28;20425;-65
2021/10/02 10:35:02;;;;;;;0.20;0.20;;;;;;;;;;5034268;28;20832;-65
2021/10/02 10:37:28;;;;;;;0.20;0.20;;;;;;;;;;5034267;28;20404;-66
2021/10/02 10:39:57;;;;;;;0.20;0.20;;;;;;;;;;5033376;28;20433;-66
2021/10/02 10:42:30;;;;;;;0.20;0.20;;;;;;;;;;5016377;28;20475;-66
2021/10/02 10:44:57;;;;;;;0.20;0.20;;;;;;;;;;5034639;28;20427;-66
2021/10/02 10:47:24;;;;;;;0.20;0.20;;;;;;;;;;5034250;28;20416;-65
2021/10/02 10:49:50;;;;;;;0.20;0.20;;;;;;;;;;5033538;28;20950;-65
2021/10/02 10:52:18;;;;;;;0.20;0.20;;;;;;;;;;5033929;28;20929;-65
2021/10/02 10:54:44;;;;;;;0.20;0.20;;;;;;;;;;5033655;28;20431;-66
2021/10/02 10:57:32;;;;;;;0.20;0.20;;;;;;;;;;5034197;28;20434;-66
2021/10/02 10:59:58;;;;;;;0.20;0.20;;;;;;;;;;5016091;28;20419;-66
2021/10/02 11:02:41;;;;;;;0.20;0.20;;;;;;;;;;5033407;28;20461;-65
2021/10/02 11:05:27;;;;;;;0.20;0.20;;;;;;;;;;5033956;28;20431;-66
2021/10/02 11:07:53;;;;;;;0.20;0.20;;;;;;;;;;5032350;28;20411;-66
2021/10/02 11:10:44;;;;;;;0.20;0.20;;;;;;;;;;5033430;28;20546;-65
2021/10/02 11:13:45;;;;;;;0.20;0.20;;;;;;;;;;5033237;28;20415;-66
2021/10/02 11:16:43;;;;;;;0.20;0.20;;;;;;;;;;5033630;28;20487;-65
2021/10/02 11:19:28;;;;;;;0.20;0.20;;;;;;;;;;4989609;28;20435;-66
2021/10/02 11:22:00;;;;;;;0.20;0.20;;;;;;;;;;5033433;28;20444;-65
2021/10/02 11:26:58;;;;;;;0.20;0.20;;;;;;;;;;5083903;22;20517;-69
2021/10/02 11:29:38;;;;;;;0.20;0.20;;;;;;;;;;5073386;28;20569;-68
2021/10/02 11:32:26;;;;;;;0.20;0.20;;;;;;;;;;5072959;28;20397;-69
2021/10/02 11:35:08;;;;;;;0.20;0.20;;;;;;;;;;5072638;28;20429;-68
2021/10/02 11:37:41;;;;;;;0.20;0.20;;;;;;;;;;5073022;28;20524;-69
2021/10/02 11:40:27;;;;;;;0.20;0.20;;;;;;;;;;5072964;28;20409;-68
2021/10/02 11:43:15;;;;;;;0.20;0.20;;;;;;;;;;5072702;28;20757;-68
2021/10/02 11:45:53;;;;;;;0.20;0.20;;;;;;;;;;5072826;28;20391;-68
2021/10/02 11:48:20;;;;;;;0.20;0.20;;;;;;;;;;5073113;28;20402;-68
2021/10/02 11:50:47;;;;;;;0.20;0.20;;;;;;;;;;5072686;28;20468;-67
2021/10/02 11:53:13;;;;;;;0.20;0.20;;;;;;;;;;5071327;28;20421;-66
2021/10/02 11:55:42;;;;;;;0.20;0.20;;;;;;;;;;5072355;28;20424;-67
2021/10/02 11:58:08;;;;;;;0.20;0.20;;;;;;;;;;5072754;28;20417;-67
2021/10/02 12:00:40;;;;;;;0.20;0.20;;;;;;;;;;5072584;28;20416;-68
2021/10/02 12:03:06;;;;;;;0.20;0.20;;;;;;;;;;5072589;28;20924;-66
2021/10/02 12:05:33;;;;;;;0.20;0.20;;;;;;;;;;5072527;28;20465;-66
2021/10/02 12:07:59;;;;;;;0.20;0.20;;;;;;;;;;5071876;28;20846;-66
2021/10/02 12:10:26;;;;;;;0.20;0.20;;;;;;;;;;5072077;28;21017;-66
2021/10/02 12:12:52;;;;;;;0.20;0.20;;;;;;;;;;5072403;28;20399;-66
2021/10/02 12:15:31;;;;;;;0.20;0.20;;;;;;;;;;5072353;28;20426;-66
2021/10/02 12:17:57;;;;;;;0.20;0.20;;;;;;;;;;5071796;28;20500;-66
2021/10/02 12:20:36;;;;;;;0.20;0.20;;;;;;;;;;5071271;28;20413;-66
2021/10/02 12:23:06;;;;;;;0.20;0.20;;;;;;;;;;5072208;28;20406;-66
2021/10/02 12:25:32;;;;;;;0.20;0.20;;;;;;;;;;5070648;28;20476;-66
2021/10/02 12:27:58;;;;;;;0.20;0.20;;;;;;;;;;5072368;28;20420;-69
2021/10/02 12:30:24;;;;;;;0.20;0.20;;;;;;;;;;5071350;28;20459;-69
2021/10/02 12:32:57;;;;;;;0.20;0.20;;;;;;;;;;5071779;28;20413;-69
2021/10/02 12:35:23;;;;;;;0.20;0.20;;;;;;;;;;5071939;28;20743;-68
2021/10/02 12:37:51;;;;;;;0.20;0.20;;;;;;;;;;5071945;28;20860;-68
2021/10/02 12:40:17;;;;;;;0.20;0.20;;;;;;;;;;5071680;28;20784;-69
2021/10/02 12:42:44;;;;;;;0.20;0.20;;;;;;;;;;5071384;28;20407;-69
2021/10/02 12:45:12;;;;;;;0.20;0.20;;;;;;;;;;5071499;28;20426;-68
2021/10/02 12:47:38;;;;;;;0.20;0.20;;;;;;;;;;5071791;28;21021;-68
2021/10/02 12:50:08;;;;;;;0.20;0.20;;;;;;;;;;5071544;28;20461;-68
2021/10/02 12:52:34;;;;;;;0.20;0.20;;;;;;;;;;5071210;28;20407;-69
2021/10/02 12:55:00;;;;;;;0.20;0.20;;;;;;;;;;5071649;28;20953;-68
2021/10/02 12:57:28;;;;;;;0.20;0.20;;;;;;;;;;5071375;28;20443;-68
2021/10/02 13:00:01;;;;;;;0.20;0.20;;;;;;;;;;5071702;28;20760;-66
2021/10/02 13:02:27;;;;;;;0.20;0.20;;;;;;;;;;5071427;28;20489;-67
2021/10/02 13:04:54;;;;;;;0.20;0.20;;;;;;;;;;5071250;28;20946;-67
2021/10/02 13:07:36;;;;;;;0.20;0.20;;;;;;;;;;5071769;28;20410;-67
2021/10/02 13:10:14;;;;;;;0.20;0.20;;;;;;;;;;5071419;28;20425;-69
2021/10/02 13:13:01;;;;;;;0.20;0.20;;;;;;;;;;5071108;28;20383;-68
2021/10/02 13:15:50;;;;;;;0.20;0.20;;;;;;;;;;5070934;28;20495;-68
2021/10/02 13:18:17;;;;;;;0.20;0.20;;;;;;;;;;5063492;28;20831;-68
2021/10/02 13:20:43;;;;;;;0.20;0.20;;;;;;;;;;5071002;28;20406;-68
2021/10/02 13:23:10;;;;;;;0.20;0.20;;;;;;;;;;5071523;28;20414;-68
2021/10/02 13:25:44;;;;;;;0.20;0.20;;;;;;;;;;5069482;28;20432;-68
2021/10/02 13:28:39;;;;;;;0.20;0.20;;;;;;;;;;5071183;28;20444;-68
2021/10/02 13:31:06;;;;;;;0.20;0.20;;;;;;;;;;5060832;28;20535;-68
2021/10/02 13:33:37;;;;;;;0.20;0.20;;;;;;;;;;5075195;28;20392;-68
2021/10/02 13:36:03;;;;;;;0.20;0.20;;;;;;;;;;5075403;28;20516;-68
2021/10/02 13:38:31;;;;;;;0.20;0.20;;;;;;;;;;5074914;28;20420;-68
2021/10/02 13:40:58;;;;;;;0.20;0.20;;;;;;;;;;5075178;28;20410;-68
2021/10/02 13:43:24;;;;;;;0.20;0.20;;;;;;;;;;5075265;28;20470;-68
2021/10/02 13:45:52;;;;;;;0.20;0.20;;;;;;;;;;5074960;28;20513;-68
2021/10/02 13:48:23;;;;;;;0.20;0.20;;;;;;;;;;5074819;28;20410;-68
2021/10/02 13:50:49;;;;;;;0.20;0.20;;;;;;;;;;5074710;28;20812;-68
2021/10/02 13:53:16;;;;;;;0.20;0.20;;;;;;;;;;5075258;28;20405;-68
2021/10/02 13:55:42;;;;;;;0.20;0.20;;;;;;;;;;5075209;28;20931;-68
2021/10/02 13:58:10;;;;;;;0.20;0.20;;;;;;;;;;5075315;28;20393;-68
2021/10/02 14:00:36;;;;;;;0.20;0.20;;;;;;;;;;5074551;28;20401;-69
2021/10/02 14:03:02;;;;;;;0.20;0.20;;;;;;;;;;5075276;28;20384;-68
2021/10/02 14:05:28;;;;;;;0.20;0.20;;;;;;;;;;5074678;28;20920;-68
2021/10/02 14:07:54;;;;;;;0.20;0.20;;;;;;;;;;5075206;28;20381;-68
2021/10/02 14:10:20;;;;;;;0.20;0.20;;;;;;;;;;5074316;28;20477;-69
2021/10/02 14:12:46;;;;;;;0.20;0.20;;;;;;;;;;5074831;28;20406;-68
2021/10/02 14:15:13;;;;;;;0.20;0.20;;;;;;;;;;5074857;28;20441;-68
2021/10/02 14:17:39;;;;;;;0.20;0.20;;;;;;;;;;5074988;28;20409;-69
2021/10/02 14:20:07;;;;;;;0.20;0.20;;;;;;;;;;5074693;28;20413;-69
2021/10/02 14:22:33;;;;;;;0.20;0.20;;;;;;;;;;5074164;28;20939;-69
2021/10/02 14:24:59;;;;;;;0.20;0.20;;;;;;;;;;5074542;28;20424;-69
2021/10/02 14:27:25;;;;;;;0.20;0.20;;;;;;;;;;5075109;28;20399;-69
2021/10/02 14:29:51;;;;;;;0.20;0.20;;;;;;;;;;5074489;28;20464;-68
2021/10/02 14:32:18;;;;;;;0.20;0.20;;;;;;;;;;5074329;28;20412;-68
2021/10/02 14:34:46;;;;;;;0.20;0.20;;;;;;;;;;5073863;28;20413;-68
2021/10/02 14:37:12;;;;;;;0.20;0.20;;;;;;;;;;5074601;28;20406;-68
2021/10/02 14:39:38;;;;;;;0.20;0.20;;;;;;;;;;5074275;28;20456;-68
2021/10/02 14:42:04;;;;;;;0.20;0.20;;;;;;;;;;5074370;28;20388;-69
2021/10/02 14:44:30;;;;;;;0.20;0.20;;;;;;;;;;5074215;28;21131;-68
2021/10/02 14:46:56;;;;;;;0.20;0.20;;;;;;;;;;5072847;28;20384;-70
2021/10/02 14:49:22;;;;;;;0.20;0.20;;;;;;;;;;5074451;28;20431;-68
2021/10/02 14:51:50;;;;;;;0.20;0.20;;;;;;;;;;5074120;28;20876;-68
2021/10/02 14:54:18;;;;;;;0.20;0.20;;;;;;;;;;5072790;28;20948;-68
2021/10/02 14:56:44;;;;;;;0.20;0.20;;;;;;;;;;5073584;28;20474;-68
2021/10/02 14:59:11;;;;;;;0.20;0.20;;;;;;;;;;5073852;28;20814;-68
2021/10/02 15:01:37;;;;;;;0.20;0.20;;;;;;;;;;5073879;28;20743;-68
2021/10/02 15:04:03;;;;;;;0.20;0.20;;;;;;;;;;5073962;28;20510;-68
2021/10/02 15:06:29;;;;;;;0.20;0.20;;;;;;;;;;5073513;28;20921;-68
2021/10/02 15:08:55;;;;;;;0.20;0.20;;;;;;;;;;5073585;28;20484;-68
2021/10/02 15:11:21;;;;;;;0.20;0.20;;;;;;;;;;5073279;28;20377;-68
2021/10/02 15:13:47;;;;;;;0.20;0.20;;;;;;;;;;5073491;28;20408;-68
2021/10/02 15:16:13;;;;;;;0.20;0.20;;;;;;;;;;5073422;28;20400;-68
2021/10/02 15:18:39;;;;;;;0.20;0.20;;;;;;;;;;5072927;28;20406;-68
2021/10/02 15:21:08;;;;;;;0.20;0.20;;;;;;;;;;5071939;28;20428;-68
2021/10/02 15:23:35;;;;;;;0.20;0.20;;;;;;;;;;5072993;28;20462;-68
2021/10/02 15:26:03;;;;;;;0.20;0.20;;;;;;;;;;5073142;28;20503;-68
2021/10/02 15:28:32;;;;;;;0.30;0.30;;;;;;;;;;5071597;28;20504;-68
2021/10/02 15:30:58;;;;;;;0.20;0.20;;;;;;;;;;5072593;28;20465;-68
2021/10/02 15:33:25;;;;;;;0.20;0.20;;;;;;;;;;5071990;28;20392;-68
2021/10/02 15:35:52;;;;;;;0.20;0.20;;;;;;;;;;5072638;28;20504;-68
2021/10/02 15:38:18;;;;;;;0.20;0.20;;;;;;;;;;5073064;28;20421;-68
2021/10/02 15:40:45;;;;;;;0.20;0.20;;;;;;;;;;5072328;28;20419;-68
2021/10/02 15:43:17;;;;;;;0.27;0.27;;;;;;;;;;5072985;28;20409;-68
2021/10/02 15:45:46;;;;;;;0.20;0.20;;;;;;;;;;5072887;28;20434;-68